createdAt,value
2022-12-19T00:04:37.211Z,96891.56
2022-12-19T00:09:38.807Z,96885.09
2022-12-19T00:14:40.294Z,96890.19
2022-12-19T00:19:41.826Z,96894.19
2022-12-19T00:24:43.356Z,96907.81
2022-12-19T00:29:44.901Z,96919.34
2022-12-19T00:34:46.403Z,96932.44
2022-12-19T00:39:47.909Z,96906.44
2022-12-19T00:44:49.417Z,96886.91
2022-12-19T00:49:50.936Z,96904.59
2022-12-19T00:54:52.440Z,96876.72
2022-12-19T00:59:54.449Z,96856.06
2022-12-19T01:04:56.029Z,96837.06
2022-12-19T01:09:57.543Z,96842.97
2022-12-19T01:15:04.448Z,96856.59
2022-12-19T01:20:07.455Z,96833.28
2022-12-19T01:25:11.156Z,96857.69
2022-12-19T01:30:13.840Z,96866.50
2022-12-19T01:35:22.050Z,96863.53
2022-12-19T01:40:24.322Z,96852.81
2022-12-19T01:45:34.356Z,96829.75
2022-12-19T01:51:01.651Z,96805.94
2022-12-19T01:56:10.443Z,96849.88
2022-12-19T02:01:13.169Z,96856.81
2022-12-19T02:06:17.243Z,96827.88
2022-12-19T02:11:19.491Z,96835.06
2022-12-19T02:16:39.884Z,96831.81
2022-12-19T02:21:58.225Z,96841.47
2022-12-19T02:27:19.722Z,96844.63
2022-12-19T02:32:31.115Z,96844.94
2022-12-19T02:37:55.571Z,96855.66
2022-12-19T02:43:03.794Z,96839.84
2022-12-19T02:48:09.020Z,96838.78
2022-12-19T02:53:14.091Z,96843.28
2022-12-19T02:58:35.929Z,96843.28
2022-12-19T03:03:55.188Z,96867.09
2022-12-19T03:09:08.332Z,96861.75
2022-12-19T03:14:18.390Z,96856.09
2022-12-19T03:19:20.086Z,96868.41
2022-12-19T03:24:21.789Z,96883.41
2022-12-19T03:29:53.504Z,96880.69
2022-12-19T03:35:20.968Z,96864.31
2022-12-19T03:40:25.574Z,96844.25
2022-12-19T03:45:54.476Z,96834.03
2022-12-19T03:51:11.927Z,96827.88
2022-12-19T03:56:42.978Z,96863.00
2022-12-19T04:01:46.568Z,96856.28
2022-12-19T04:06:48.586Z,96840.19
2022-12-19T04:12:02.174Z,96853.06
2022-12-19T04:17:22.437Z,96864.59
2022-12-19T04:22:31.991Z,96907.22
2022-12-19T04:27:37.105Z,96882.59
2022-12-19T04:32:41.926Z,96877.50
2022-12-19T04:37:43.771Z,96880.69
2022-12-19T04:42:45.296Z,96933.19
2022-12-19T04:47:46.830Z,96893.84
2022-12-19T04:52:48.376Z,96876.19
2022-12-19T04:57:49.858Z,96870.03
2022-12-19T05:02:51.725Z,96875.88
2022-12-19T05:07:53.491Z,96849.31
2022-12-19T05:12:55.113Z,96788.47
2022-12-19T05:17:57.493Z,96783.72
2022-12-19T05:23:03.115Z,96772.47
2022-12-19T05:28:05.958Z,96796.00
2022-12-19T05:33:07.511Z,96845.53
2022-12-19T05:38:09.157Z,96847.66
2022-12-19T05:43:10.662Z,96861.56
2022-12-19T05:48:12.205Z,96847.59
2022-12-19T05:53:13.946Z,96886.66
2022-12-19T05:58:18.760Z,96872.97
2022-12-19T06:03:20.577Z,96859.56
2022-12-19T06:08:22.380Z,96899.72
2022-12-19T06:13:25.212Z,96881.53
2022-12-19T06:18:28.240Z,96894.66
2022-12-19T06:23:31.187Z,96897.34
2022-12-19T06:28:33.578Z,96888.50
2022-12-19T06:33:35.209Z,96871.91
2022-12-19T06:38:37.006Z,96865.97
2022-12-19T06:43:38.713Z,96879.34
2022-12-19T06:48:40.440Z,96891.91
2022-12-19T06:53:42.017Z,96900.16
2022-12-19T06:58:43.559Z,96890.53
2022-12-19T07:03:46.318Z,96864.53
2022-12-19T07:08:47.905Z,96870.41
2022-12-19T07:13:49.444Z,96858.88
2022-12-19T07:18:51.133Z,96839.81
2022-12-19T07:23:52.811Z,96859.09
2022-12-19T07:28:54.518Z,96857.72
2022-12-19T07:33:56.143Z,96862.22
2022-12-19T07:38:57.707Z,96858.97
2022-12-19T07:43:59.218Z,96873.41
2022-12-19T07:49:00.840Z,96883.03
2022-12-19T07:54:03.421Z,96886.50
2022-12-19T07:59:05.085Z,96880.88
2022-12-19T08:04:06.712Z,96885.06
2022-12-19T08:09:08.712Z,96872.97
2022-12-19T08:14:10.260Z,96892.78
2022-12-19T08:19:11.844Z,96884.16
2022-12-19T08:24:13.414Z,96883.06
2022-12-19T08:29:14.989Z,96885.69
2022-12-19T08:34:16.681Z,96872.75
2022-12-19T08:39:18.234Z,96867.31
2022-12-19T08:44:19.873Z,96865.66
2022-12-19T08:49:21.579Z,96864.53
2022-12-19T08:54:23.205Z,96870.09
2022-12-19T08:59:31.025Z,96853.13
2022-12-19T09:06:01.194Z,96847.38
2022-12-19T09:09:55.128Z,96849.19
2022-12-19T09:14:56.723Z,96849.88
2022-12-19T09:19:58.198Z,96841.75
2022-12-19T09:24:59.726Z,96853.50
2022-12-19T09:30:01.988Z,96857.22
2022-12-19T09:35:04.940Z,96847.78
2022-12-19T09:40:07.276Z,96832.66
2022-12-19T09:45:18.152Z,96827.69
2022-12-19T09:50:50.962Z,96830.63
2022-12-19T09:55:53.968Z,96834.78
2022-12-19T10:01:00.253Z,96824.75
2022-12-19T10:07:11.736Z,96842.38
2022-12-19T10:12:44.662Z,96835.63
2022-12-19T10:17:33.504Z,96824.56
2022-12-19T10:22:51.169Z,96822.38
2022-12-19T10:28:00.542Z,96822.56
2022-12-19T10:33:29.893Z,96833.25
2022-12-19T10:38:36.300Z,96831.25
2022-12-19T10:43:51.093Z,96835.16
2022-12-19T10:48:52.984Z,96830.97
2022-12-19T10:53:57.086Z,96823.31
2022-12-19T10:59:00.103Z,96815.13
2022-12-19T11:04:21.491Z,96803.00
2022-12-19T11:09:29.398Z,96793.22
2022-12-19T11:18:47.173Z,96778.06
2022-12-19T11:29:27.107Z,96766.31
2022-12-19T11:29:33.610Z,96755.44
2022-12-19T11:36:06.288Z,96766.47
2022-12-19T11:41:41.343Z,96752.69
2022-12-19T11:46:53.668Z,96759.06
2022-12-19T11:52:54.247Z,96738.50
2022-12-19T11:57:40.515Z,96737.59
2022-12-19T12:03:04.060Z,96743.66
2022-12-19T12:10:43.594Z,96735.00
2022-12-19T12:21:40.389Z,96711.72
2022-12-19T12:31:28.409Z,96707.63
2022-12-19T12:32:06.319Z,96724.78
2022-12-19T12:35:28.681Z,96714.16
2022-12-19T12:42:42.226Z,96699.00
2022-12-19T12:47:48.032Z,96711.22
2022-12-19T12:52:53.823Z,96717.44
2022-12-19T12:57:55.563Z,96686.88
2022-12-19T13:03:09.425Z,96685.94
2022-12-19T13:08:35.333Z,96692.31
2022-12-19T13:13:55.411Z,96692.81
2022-12-19T13:19:20.989Z,96685.19
2022-12-19T13:24:25.674Z,96681.53
2022-12-19T13:29:30.270Z,96669.97
2022-12-19T13:34:37.201Z,96679.63
2022-12-19T13:40:11.281Z,96675.03
2022-12-19T13:45:22.489Z,96676.63
2022-12-19T13:50:32.461Z,96668.56
2022-12-19T13:55:34.098Z,96646.34
2022-12-19T14:00:41.843Z,96640.50
2022-12-19T14:06:17.276Z,96665.50
2022-12-19T14:11:38.436Z,96661.22
2022-12-19T14:16:40.169Z,96675.78
2022-12-19T14:22:04.563Z,96672.31
2022-12-19T14:28:20.527Z,96672.31
2022-12-19T14:33:44.502Z,96678.78
2022-12-19T14:39:20.703Z,96676.91
2022-12-19T14:43:58.926Z,96672.31
2022-12-19T14:54:06.895Z,96658.66
2022-12-19T14:59:47.761Z,96668.00
2022-12-19T15:05:02.758Z,96656.16
2022-12-19T15:10:59.935Z,96653.75
2022-12-19T15:15:38.731Z,96639.81
2022-12-19T15:20:40.618Z,96644.72
2022-12-19T15:26:03.410Z,96645.31
2022-12-19T15:31:30.069Z,96659.13
2022-12-19T15:36:31.938Z,96650.84
2022-12-19T15:41:34.543Z,96658.91
2022-12-19T15:46:38.891Z,96661.16
2022-12-19T15:51:44.808Z,96652.25
2022-12-19T15:56:56.390Z,96654.16
2022-12-19T16:01:58.305Z,96658.25
2022-12-19T16:06:59.907Z,96656.34
2022-12-19T16:12:01.476Z,96650.19
2022-12-19T16:17:03.097Z,96658.25
2022-12-19T16:22:17.766Z,96644.19
2022-12-19T16:27:23.843Z,96641.03
2022-12-19T16:32:25.581Z,96645.91
2022-12-19T16:37:31.960Z,96657.47
2022-12-19T16:42:34.048Z,96643.72
2022-12-19T16:47:35.633Z,96635.50
2022-12-19T16:52:42.375Z,96630.91
2022-12-19T16:57:46.625Z,96637.38
2022-12-19T17:02:58.567Z,96627.09
2022-12-19T17:08:00.193Z,96626.63
2022-12-19T17:13:03.485Z,96625.53
2022-12-19T17:18:26.999Z,96623.13
2022-12-19T17:23:30.971Z,96617.75
2022-12-19T17:28:32.519Z,96600.03
2022-12-19T17:33:36.875Z,96606.63
2022-12-19T17:38:38.822Z,96599.97
2022-12-19T17:43:40.723Z,96605.97
2022-12-19T17:48:43.651Z,96601.72
2022-12-19T17:53:45.884Z,96600.09
2022-12-19T17:58:48.814Z,96612.78
2022-12-19T18:03:53.635Z,96599.59
2022-12-19T18:08:55.663Z,96593.44
2022-12-19T18:13:57.400Z,96584.88
2022-12-19T18:18:58.956Z,96570.81
2022-12-19T18:24:00.600Z,96574.94
2022-12-19T18:29:02.378Z,96594.84
2022-12-19T18:34:08.009Z,96600.22
2022-12-19T18:39:22.410Z,96583.78
2022-12-19T18:44:24.176Z,96577.63
2022-12-19T18:49:27.693Z,96583.78
2022-12-19T18:54:29.481Z,96582.50
2022-12-19T18:59:31.015Z,96590.09
2022-12-19T19:04:33.193Z,96598.47
2022-12-19T19:09:34.778Z,96604.66
2022-12-19T19:14:48.407Z,96596.41
2022-12-19T19:19:49.995Z,96606.06
2022-12-19T19:24:51.558Z,96613.31
2022-12-19T19:29:53.102Z,96633.28
2022-12-19T19:34:55.680Z,96623.31
2022-12-19T19:39:57.297Z,96620.59
2022-12-19T19:44:58.949Z,96620.59
2022-12-19T19:50:00.720Z,96614.72
2022-12-19T19:55:02.584Z,96617.75
2022-12-19T20:00:06.530Z,96616.97
2022-12-19T20:05:15.338Z,96611.38
2022-12-19T20:10:17.007Z,96600.94
2022-12-19T20:15:18.592Z,96601.25
2022-12-19T20:20:20.187Z,96594.28
2022-12-19T20:25:21.783Z,96591.09
2022-12-19T20:30:23.509Z,96600.47
2022-12-19T20:35:25.133Z,96582.72
2022-12-19T20:40:26.712Z,96581.13
2022-12-19T20:45:29.364Z,96599.66
2022-12-19T20:50:30.956Z,96606.91
2022-12-19T20:55:32.954Z,96592.69
2022-12-19T21:00:34.537Z,96590.00
2022-12-19T21:05:36.137Z,96600.75
2022-12-19T21:10:38.051Z,96598.06
2022-12-19T21:15:39.783Z,96596.97
2022-12-19T21:20:41.348Z,96595.88
2022-12-19T21:25:43.110Z,96595.88
2022-12-19T21:30:44.739Z,96587.78
2022-12-19T21:35:46.352Z,96571.66
2022-12-19T21:40:48.373Z,96566.56
2022-12-19T21:45:50.137Z,96573.56
2022-12-19T21:50:55.822Z,96583.53
2022-12-19T21:56:24.121Z,96591.59
2022-12-19T22:01:26.601Z,96576.25
2022-12-19T22:06:31.720Z,96572.75
2022-12-19T22:11:34.946Z,96560.09
2022-12-19T22:16:36.707Z,96538.88
2022-12-19T22:21:38.347Z,96543.78
2022-12-19T22:26:40.611Z,96544.59
2022-12-19T22:31:43.254Z,96542.97
2022-12-19T22:36:45.735Z,96541.91
2022-12-19T22:41:47.299Z,96552.31
2022-12-19T22:46:49.881Z,96549.34
2022-12-19T22:51:51.450Z,96548.22
2022-12-19T22:56:53.069Z,96547.16
2022-12-19T23:01:54.775Z,96556.50
2022-12-19T23:06:56.461Z,96553.81
2022-12-19T23:11:58.088Z,96556.50
2022-12-19T23:16:59.759Z,96538.75
2022-12-19T23:22:01.406Z,96530.19
2022-12-19T23:27:03.265Z,96533.69
2022-12-19T23:32:05.249Z,96525.28
2022-12-19T23:37:11.596Z,96517.56
2022-12-19T23:42:14.182Z,96522.13
2022-12-19T23:47:16.016Z,96507.88
2022-12-19T23:52:17.645Z,96518.34
2022-12-19T23:57:19.345Z,96516.13
